createdAt,value
2017-06-26T00:00:15.527Z,5.93
2017-06-26T00:02:43.075Z,6.40
2017-06-26T00:05:10.628Z,5.30
2017-06-26T00:07:38.210Z,5.37
2017-06-26T00:10:05.778Z,5.40
2017-06-26T00:12:33.323Z,5.87
2017-06-26T00:15:00.903Z,5.07
2017-06-26T00:17:28.455Z,4.73
2017-06-26T00:19:56.001Z,5.60
2017-06-26T00:22:23.567Z,6.17
2017-06-26T00:24:51.131Z,5.37
2017-06-26T00:27:18.712Z,5.70
2017-06-26T00:29:46.290Z,5.67
2017-06-26T00:32:13.835Z,5.00
2017-06-26T00:34:41.382Z,5.23
2017-06-26T00:37:08.954Z,6.00
2017-06-26T00:39:36.539Z,5.67
2017-06-26T00:42:04.120Z,5.87
2017-06-26T00:44:31.711Z,5.97
2017-06-26T00:47:00.039Z,4.87
2017-06-26T00:49:27.610Z,4.90
2017-06-26T00:51:55.191Z,4.90
2017-06-26T00:54:22.758Z,5.13
2017-06-26T00:56:50.290Z,4.20
2017-06-26T00:59:17.884Z,5.37
2017-06-26T01:01:45.438Z,5.00
2017-06-26T01:04:13.029Z,4.73
2017-06-26T01:06:40.599Z,4.13
2017-06-26T01:09:08.152Z,5.10
2017-06-26T01:11:35.698Z,4.77
2017-06-26T01:14:03.289Z,4.77
2017-06-26T01:16:30.832Z,4.93
2017-06-26T01:18:58.363Z,5.00
2017-06-26T01:21:25.958Z,4.70
2017-06-26T01:23:53.515Z,5.03
2017-06-26T01:26:21.052Z,4.57
2017-06-26T01:28:48.613Z,4.90
2017-06-26T01:31:16.167Z,4.77
2017-06-26T01:33:44.526Z,4.83
2017-06-26T01:36:12.099Z,4.37
2017-06-26T01:38:39.668Z,4.97
2017-06-26T01:41:07.962Z,4.50
2017-06-26T01:43:36.294Z,4.70
2017-06-26T01:46:03.859Z,4.37
2017-06-26T01:48:31.432Z,4.93
2017-06-26T01:50:59.001Z,4.70
2017-06-26T01:53:26.546Z,4.90
2017-06-26T01:55:54.117Z,4.70
2017-06-26T01:58:21.684Z,4.77
2017-06-26T02:00:49.211Z,4.70
2017-06-26T02:03:16.787Z,5.03
2017-06-26T02:05:44.355Z,4.80
2017-06-26T02:08:11.957Z,5.03
2017-06-26T02:10:39.531Z,5.70
2017-06-26T02:13:07.123Z,6.57
2017-06-26T02:15:34.680Z,5.97
2017-06-26T02:18:02.996Z,5.33
2017-06-26T02:20:30.572Z,6.30
2017-06-26T02:22:58.135Z,5.53
2017-06-26T02:25:25.679Z,6.40
2017-06-26T02:27:53.249Z,6.00
2017-06-26T02:30:20.844Z,5.70
2017-06-26T02:32:48.395Z,6.27
2017-06-26T02:35:16.100Z,6.50
2017-06-26T02:37:43.644Z,6.23
2017-06-26T02:40:11.313Z,6.47
2017-06-26T02:42:38.889Z,5.50
2017-06-26T02:45:06.534Z,5.40
2017-06-26T02:47:34.239Z,5.40
2017-06-26T02:50:02.122Z,5.63
2017-06-26T02:52:29.965Z,6.60
2017-06-26T02:54:57.689Z,6.37
2017-06-26T02:57:25.560Z,6.93
2017-06-26T02:59:53.098Z,5.70
2017-06-26T03:02:21.696Z,7.23
2017-06-26T03:04:49.262Z,7.40
2017-06-26T03:07:16.920Z,7.00
2017-06-26T03:09:44.751Z,6.50
2017-06-26T03:12:12.753Z,7.57
2017-06-26T03:14:40.602Z,6.93
2017-06-26T03:17:08.167Z,6.60
2017-06-26T03:19:36.741Z,6.40
2017-06-26T03:22:04.299Z,6.87
2017-06-26T03:24:32.020Z,6.80
2017-06-26T03:26:59.578Z,6.60
2017-06-26T03:29:27.293Z,7.07
2017-06-26T03:31:55.091Z,6.87
2017-06-26T03:34:23.665Z,6.17
2017-06-26T03:36:51.494Z,6.30
2017-06-26T03:39:19.039Z,5.93
2017-06-26T03:41:47.400Z,6.23
2017-06-26T03:44:14.940Z,5.80
2017-06-26T03:46:42.620Z,6.03
2017-06-26T03:49:10.333Z,5.47
2017-06-26T03:51:38.061Z,5.97
2017-06-26T03:54:05.600Z,6.07
2017-06-26T03:56:33.268Z,6.30
2017-06-26T03:59:00.816Z,6.03
2017-06-26T04:01:28.342Z,6.57
2017-06-26T04:03:55.917Z,7.13
2017-06-26T04:06:23.450Z,6.43
2017-06-26T04:08:51.003Z,6.23
2017-06-26T04:11:18.586Z,6.03
2017-06-26T04:13:46.141Z,6.10
2017-06-26T04:16:13.686Z,6.03
2017-06-26T04:18:41.247Z,5.77
2017-06-26T04:21:08.786Z,5.27
2017-06-26T04:23:36.355Z,5.50
2017-06-26T04:26:03.922Z,4.93
2017-06-26T04:28:31.443Z,6.50
2017-06-26T04:30:58.977Z,5.97
2017-06-26T04:33:26.545Z,5.10
2017-06-26T04:35:54.091Z,5.13
2017-06-26T04:38:21.647Z,6.03
2017-06-26T04:40:49.196Z,6.13
2017-06-26T04:43:16.743Z,6.60
2017-06-26T04:45:44.293Z,6.27
2017-06-26T04:48:12.631Z,6.30
2017-06-26T04:50:40.169Z,6.13
2017-06-26T04:53:07.757Z,6.13
2017-06-26T04:55:35.354Z,6.07
2017-06-26T04:58:02.900Z,5.33
2017-06-26T05:00:30.449Z,5.83
2017-06-26T05:02:58.045Z,5.40
2017-06-26T05:05:25.610Z,5.83
2017-06-26T05:07:53.180Z,5.00
2017-06-26T05:10:20.753Z,5.57
2017-06-26T05:12:48.295Z,5.83
2017-06-26T05:15:15.858Z,5.43
2017-06-26T05:17:43.436Z,6.37
2017-06-26T05:20:10.986Z,5.40
2017-06-26T05:22:38.547Z,5.63
2017-06-26T05:25:06.100Z,5.50
2017-06-26T05:27:33.662Z,6.03
2017-06-26T05:30:01.243Z,6.10
2017-06-26T05:32:28.845Z,5.57
2017-06-26T05:34:57.199Z,5.43
2017-06-26T05:37:24.754Z,5.60
2017-06-26T05:39:52.377Z,5.87
2017-06-26T05:42:19.943Z,5.87
2017-06-26T05:44:48.245Z,5.10
2017-06-26T05:47:16.815Z,4.97
2017-06-26T05:49:44.355Z,5.80
2017-06-26T05:52:11.928Z,4.70
2017-06-26T05:54:40.368Z,5.03
2017-06-26T05:57:07.901Z,4.37
2017-06-26T05:59:35.455Z,4.60
2017-06-26T06:02:03.019Z,4.70
2017-06-26T06:04:30.565Z,4.33
2017-06-26T06:06:58.123Z,5.37
2017-06-26T06:09:26.467Z,4.73
2017-06-26T06:11:54.022Z,4.90
2017-06-26T06:14:21.594Z,4.90
2017-06-26T06:16:49.180Z,4.47
2017-06-26T06:19:16.744Z,4.40
2017-06-26T06:21:44.292Z,4.70
2017-06-26T06:24:11.898Z,4.60
2017-06-26T06:26:39.455Z,4.30
2017-06-26T06:29:06.993Z,5.13
2017-06-26T06:31:34.578Z,4.40
2017-06-26T06:34:02.133Z,4.27
2017-06-26T06:36:29.664Z,4.77
2017-06-26T06:38:57.265Z,4.17
2017-06-26T06:41:24.886Z,4.33
2017-06-26T06:43:52.464Z,4.70
2017-06-26T06:46:20.063Z,3.97
2017-06-26T06:48:47.624Z,3.83
2017-06-26T06:51:15.187Z,4.30
2017-06-26T06:53:42.774Z,3.60
2017-06-26T06:56:10.371Z,4.73
2017-06-26T06:58:37.932Z,4.00
2017-06-26T07:01:05.536Z,4.60
2017-06-26T07:03:33.137Z,4.37
2017-06-26T07:06:00.714Z,4.37
2017-06-26T07:08:28.370Z,3.70
2017-06-26T07:10:55.937Z,4.20
2017-06-26T07:13:24.260Z,4.37
2017-06-26T07:15:51.847Z,4.27
2017-06-26T07:18:19.468Z,3.80
2017-06-26T07:20:47.005Z,4.17
2017-06-26T07:23:14.572Z,4.10
2017-06-26T07:25:42.135Z,3.73
2017-06-26T07:28:09.713Z,4.37
2017-06-26T07:30:37.284Z,4.17
2017-06-26T07:33:04.845Z,4.30
2017-06-26T07:35:32.385Z,4.43
2017-06-26T07:37:59.953Z,4.17
2017-06-26T07:40:28.322Z,4.23
2017-06-26T07:42:55.912Z,4.27
2017-06-26T07:45:23.514Z,4.13
2017-06-26T07:47:51.084Z,4.83
2017-06-26T07:50:18.674Z,4.03
2017-06-26T07:52:46.276Z,4.50
2017-06-26T07:55:13.855Z,3.67
2017-06-26T07:57:41.454Z,5.10
2017-06-26T08:00:09.062Z,4.47
2017-06-26T08:02:36.655Z,4.20
2017-06-26T08:05:04.213Z,4.63
2017-06-26T08:07:32.550Z,4.53
2017-06-26T08:10:00.125Z,4.07
2017-06-26T08:12:27.721Z,4.07
2017-06-26T08:14:55.287Z,3.90
2017-06-26T08:17:22.863Z,4.53
2017-06-26T08:19:50.423Z,4.33
2017-06-26T08:22:18.019Z,4.87
2017-06-26T08:24:45.587Z,5.30
2017-06-26T08:27:13.733Z,4.63
2017-06-26T08:29:41.355Z,4.67
2017-06-26T08:32:08.950Z,4.93
2017-06-26T08:34:36.586Z,4.87
2017-06-26T08:37:04.180Z,4.73
2017-06-26T08:39:31.750Z,4.40
2017-06-26T08:41:59.335Z,5.43
2017-06-26T08:44:26.932Z,5.73
2017-06-26T08:46:54.539Z,4.60
2017-06-26T08:49:22.874Z,4.40
2017-06-26T08:51:50.460Z,4.80
2017-06-26T08:54:18.007Z,4.37
2017-06-26T08:56:46.380Z,4.70
2017-06-26T08:59:13.996Z,4.87
2017-06-26T09:01:41.573Z,5.43
2017-06-26T09:04:09.887Z,4.87
2017-06-26T09:06:37.453Z,4.43
2017-06-26T09:09:05.023Z,4.67
2017-06-26T09:11:32.591Z,4.80
2017-06-26T09:14:00.197Z,4.50
2017-06-26T09:16:27.834Z,4.77
2017-06-26T09:18:55.399Z,4.67
2017-06-26T09:21:23.020Z,4.77
2017-06-26T09:23:51.510Z,4.63
2017-06-26T09:26:19.074Z,4.77
2017-06-26T09:28:46.637Z,4.07
2017-06-26T09:31:14.174Z,4.70
2017-06-26T09:33:42.475Z,4.27
2017-06-26T09:36:10.067Z,5.10
2017-06-26T09:38:37.616Z,5.30
2017-06-26T09:41:05.177Z,5.00
2017-06-26T09:43:32.809Z,5.10
2017-06-26T09:46:00.351Z,4.80
2017-06-26T09:48:27.918Z,4.70
2017-06-26T09:50:55.523Z,4.70
2017-06-26T09:53:24.243Z,5.03
2017-06-26T09:55:51.811Z,4.70
2017-06-26T09:58:19.397Z,5.00
2017-06-26T10:00:46.989Z,4.50
2017-06-26T10:03:14.788Z,4.50
2017-06-26T10:05:42.384Z,4.70
2017-06-26T10:08:09.929Z,4.67
2017-06-26T10:10:37.510Z,4.53
2017-06-26T10:13:05.149Z,4.70
2017-06-26T10:15:32.702Z,4.33
2017-06-26T10:18:00.301Z,4.43
2017-06-26T10:20:28.700Z,4.97
2017-06-26T10:22:56.277Z,4.43
2017-06-26T10:25:23.835Z,4.70
2017-06-26T10:27:52.427Z,4.20
2017-06-26T10:30:19.998Z,3.83
2017-06-26T10:32:47.568Z,5.03
2017-06-26T10:35:15.153Z,4.67
2017-06-26T10:37:43.688Z,4.40
2017-06-26T10:40:11.276Z,5.03
2017-06-26T10:42:38.864Z,5.10
2017-06-26T10:45:06.412Z,5.17
2017-06-26T10:47:33.980Z,4.23
2017-06-26T10:50:02.676Z,4.70
2017-06-26T10:52:31.042Z,4.27
2017-06-26T10:54:58.622Z,3.80
2017-06-26T10:57:26.238Z,4.17
2017-06-26T10:59:53.793Z,4.47
2017-06-26T11:02:21.396Z,3.93
2017-06-26T11:04:48.993Z,3.87
2017-06-26T11:07:16.560Z,3.97
2017-06-26T11:09:44.172Z,4.40
2017-06-26T11:12:11.745Z,4.40
2017-06-26T11:14:39.303Z,4.00
2017-06-26T11:17:06.862Z,4.03
2017-06-26T11:19:34.443Z,3.90
2017-06-26T11:22:02.000Z,3.67
2017-06-26T11:24:29.565Z,3.60
2017-06-26T11:26:57.168Z,4.43
2017-06-26T11:29:24.709Z,4.03
2017-06-26T11:31:52.283Z,3.43
2017-06-26T11:34:19.841Z,3.63
2017-06-26T11:36:47.381Z,3.90
2017-06-26T11:39:14.970Z,4.13
2017-06-26T11:41:42.548Z,4.00
2017-06-26T11:44:10.083Z,3.80
2017-06-26T11:46:37.656Z,3.90
2017-06-26T11:49:05.226Z,4.60
2017-06-26T11:51:32.788Z,3.97
2017-06-26T11:54:00.343Z,4.00
2017-06-26T11:56:27.946Z,4.40
2017-06-26T11:58:55.540Z,4.37
2017-06-26T12:01:23.127Z,4.67
2017-06-26T12:03:50.721Z,3.97
2017-06-26T12:06:18.296Z,3.80
2017-06-26T12:08:45.839Z,3.97
2017-06-26T12:11:13.440Z,4.10
2017-06-26T12:13:41.745Z,3.40
2017-06-26T12:16:09.324Z,4.57
2017-06-26T12:18:36.934Z,3.80
2017-06-26T12:21:04.522Z,4.23
2017-06-26T12:23:32.814Z,3.50
2017-06-26T12:26:00.437Z,3.63
2017-06-26T12:28:28.024Z,3.70
2017-06-26T12:30:56.362Z,3.83
2017-06-26T12:33:23.935Z,4.00
2017-06-26T12:35:51.501Z,3.77
2017-06-26T12:38:19.049Z,3.97
2017-06-26T12:40:46.619Z,4.10
2017-06-26T12:43:14.186Z,3.90
2017-06-26T12:45:41.801Z,3.93
2017-06-26T12:48:09.407Z,3.80
2017-06-26T12:50:36.964Z,3.70
2017-06-26T12:53:04.527Z,3.60
2017-06-26T12:55:32.120Z,3.80
2017-06-26T12:57:59.657Z,3.63
2017-06-26T13:00:27.251Z,3.57
2017-06-26T13:02:54.859Z,3.57
2017-06-26T13:05:22.446Z,3.73
2017-06-26T13:07:50.069Z,3.57
2017-06-26T13:10:17.647Z,3.50
2017-06-26T13:12:45.223Z,3.60
2017-06-26T13:15:12.818Z,4.00
2017-06-26T13:17:40.401Z,4.00
2017-06-26T13:20:07.973Z,3.90
2017-06-26T13:22:35.537Z,3.80
2017-06-26T13:25:03.147Z,3.30
2017-06-26T13:27:30.705Z,3.53
2017-06-26T13:29:59.077Z,3.83
2017-06-26T13:32:26.641Z,3.60
2017-06-26T13:34:55.022Z,3.60
2017-06-26T13:37:22.584Z,3.40
2017-06-26T13:39:50.145Z,3.70
2017-06-26T13:42:17.701Z,3.53
2017-06-26T13:44:45.259Z,4.53
2017-06-26T13:47:12.838Z,4.40
2017-06-26T13:49:40.377Z,3.90
2017-06-26T13:52:07.987Z,3.97
2017-06-26T13:54:35.804Z,3.93
2017-06-26T13:57:03.385Z,3.70
2017-06-26T13:59:30.939Z,3.37
2017-06-26T14:01:58.495Z,3.70
2017-06-26T14:04:26.051Z,3.90
2017-06-26T14:06:53.626Z,4.03
2017-06-26T14:09:21.707Z,3.67
2017-06-26T14:11:52.147Z,3.60
2017-06-26T14:14:19.715Z,4.30
2017-06-26T14:16:47.316Z,4.00
2017-06-26T14:19:15.668Z,3.93
2017-06-26T14:21:43.234Z,3.53
2017-06-26T14:24:11.604Z,4.30
2017-06-26T14:26:39.158Z,4.20
2017-06-26T14:29:06.731Z,3.67
2017-06-26T14:31:34.387Z,3.83
2017-06-26T14:34:01.988Z,4.30
2017-06-26T14:36:30.325Z,4.10
2017-06-26T14:38:57.905Z,4.23
2017-06-26T14:41:25.510Z,3.97
2017-06-26T14:43:53.115Z,3.97
2017-06-26T14:46:20.732Z,4.20
2017-06-26T14:48:48.324Z,4.23
2017-06-26T14:51:15.899Z,4.20
2017-06-26T14:53:43.500Z,3.30
2017-06-26T14:56:11.102Z,4.57
2017-06-26T14:58:38.723Z,3.60
2017-06-26T15:01:06.306Z,4.80
2017-06-26T15:03:33.870Z,4.10
2017-06-26T15:06:01.456Z,4.10
2017-06-26T15:08:29.051Z,4.00
2017-06-26T15:10:57.425Z,3.53
2017-06-26T15:13:25.770Z,4.37
2017-06-26T15:15:53.348Z,3.80
2017-06-26T15:18:20.915Z,4.23
2017-06-26T15:20:48.490Z,4.10
2017-06-26T15:23:16.851Z,3.70
2017-06-26T15:25:44.405Z,4.30
2017-06-26T15:28:12.018Z,3.80
2017-06-26T15:30:40.376Z,3.60
2017-06-26T15:33:07.943Z,4.20
2017-06-26T15:35:35.522Z,4.20
2017-06-26T15:38:03.167Z,4.20
2017-06-26T15:40:30.719Z,3.70
2017-06-26T15:42:58.269Z,4.00
2017-06-26T15:45:25.834Z,4.30
2017-06-26T15:47:53.733Z,4.83
2017-06-26T15:50:21.355Z,3.50
2017-06-26T15:52:48.956Z,4.53
2017-06-26T15:55:16.566Z,4.00
2017-06-26T15:57:44.234Z,4.10
2017-06-26T16:00:12.569Z,3.33
2017-06-26T16:02:40.167Z,3.50
2017-06-26T16:05:07.862Z,4.03
2017-06-26T16:07:35.537Z,3.90
2017-06-26T16:10:03.103Z,3.97
2017-06-26T16:12:30.659Z,3.80
2017-06-26T16:14:58.285Z,3.47
2017-06-26T16:17:25.838Z,3.90
2017-06-26T16:19:53.398Z,3.47
2017-06-26T16:22:21.887Z,3.80
2017-06-26T16:24:49.476Z,3.37
2017-06-26T16:27:17.064Z,4.10
2017-06-26T16:29:45.876Z,3.90
2017-06-26T16:32:13.479Z,3.80
2017-06-26T16:34:41.038Z,3.70
2017-06-26T16:37:08.670Z,4.30
2017-06-26T16:39:36.254Z,3.97
2017-06-26T16:42:04.232Z,3.67
2017-06-26T16:44:31.962Z,3.33
2017-06-26T16:47:00.649Z,3.60
2017-06-26T16:49:28.599Z,4.07
2017-06-26T16:51:57.809Z,3.37
2017-06-26T16:54:26.757Z,4.10
2017-06-26T16:56:55.772Z,4.07
2017-06-26T16:59:26.988Z,3.80
2017-06-26T17:01:55.625Z,3.83
2017-06-26T17:04:23.949Z,3.90
2017-06-26T17:06:51.635Z,3.67
2017-06-26T17:09:19.247Z,4.20
2017-06-26T17:11:46.842Z,3.43
2017-06-26T17:14:14.441Z,4.10
2017-06-26T17:16:42.012Z,3.90
2017-06-26T17:19:09.576Z,3.93
2017-06-26T17:21:37.204Z,4.10
2017-06-26T17:24:04.780Z,4.07
2017-06-26T17:26:32.316Z,4.20
2017-06-26T17:28:59.926Z,4.40
2017-06-26T17:31:27.496Z,3.90
2017-06-26T17:33:55.061Z,4.20
2017-06-26T17:36:22.675Z,4.00
2017-06-26T17:38:50.494Z,4.37
2017-06-26T17:41:18.110Z,3.80
2017-06-26T17:43:46.077Z,4.00
2017-06-26T17:46:14.078Z,3.90
2017-06-26T17:52:20.479Z,4.10
2017-06-26T17:54:48.309Z,3.80
2017-06-26T17:57:16.866Z,3.80
2017-06-26T18:03:23.083Z,3.70
2017-06-26T18:06:21.013Z,3.30
2017-06-26T18:08:48.668Z,3.37
2017-06-26T18:11:16.377Z,3.60
2017-06-26T18:13:44.915Z,3.57
2017-06-26T18:16:12.689Z,3.80
2017-06-26T18:25:37.106Z,3.77
2017-06-26T18:28:05.638Z,4.30
2017-06-26T18:30:33.516Z,4.10
2017-06-26T18:33:01.370Z,4.03
2017-06-26T18:35:29.071Z,4.73
2017-06-26T18:37:58.073Z,4.00
2017-06-26T18:40:26.250Z,3.63
2017-06-26T18:42:53.931Z,3.50
2017-06-26T18:45:21.703Z,4.30
2017-06-26T18:47:50.199Z,4.00
2017-06-26T18:50:17.993Z,3.40
2017-06-26T18:52:45.763Z,4.30
2017-06-26T18:55:13.630Z,3.93
2017-06-26T18:57:42.439Z,3.63
2017-06-26T19:00:11.020Z,3.70
2017-06-26T19:02:39.902Z,3.60
2017-06-26T19:05:07.621Z,3.97
2017-06-26T19:26:55.480Z,3.30
2017-06-26T19:29:24.088Z,3.90
2017-06-26T19:31:51.900Z,3.63
2017-06-26T19:34:32.579Z,4.07
2017-06-26T19:37:01.227Z,3.47
2017-06-26T19:39:31.847Z,3.37
2017-06-26T19:41:59.579Z,3.30
2017-06-26T19:44:28.136Z,3.60
2017-06-26T19:46:56.680Z,3.60
2017-06-26T19:49:26.604Z,3.70
2017-06-26T19:52:39.347Z,3.47
2017-06-26T19:55:06.978Z,3.83
2017-06-26T19:57:34.650Z,3.57
2017-06-26T20:00:04.475Z,3.40
2017-06-26T20:02:37.480Z,3.50
2017-06-26T20:05:05.064Z,3.87
2017-06-26T20:07:32.763Z,3.70
2017-06-26T20:10:00.388Z,3.93
2017-06-26T20:12:27.939Z,4.50
2017-06-26T20:14:55.495Z,3.93
2017-06-26T20:17:23.082Z,3.63
2017-06-26T20:19:50.743Z,3.90
2017-06-26T20:22:18.506Z,3.70
2017-06-26T20:24:46.308Z,3.80
2017-06-26T20:27:16.756Z,3.53
2017-06-26T20:29:46.082Z,3.90
2017-06-26T20:32:13.674Z,4.13
2017-06-26T20:34:41.238Z,3.50
2017-06-26T20:37:08.811Z,3.33
2017-06-26T20:39:36.376Z,3.60
2017-06-26T20:42:03.932Z,4.20
2017-06-26T20:44:31.472Z,3.97
2017-06-26T20:46:59.041Z,3.47
2017-06-26T20:49:26.611Z,3.97
2017-06-26T20:51:54.255Z,3.63
2017-06-26T20:54:23.722Z,3.10
2017-06-26T20:56:51.528Z,3.17
2017-06-26T20:59:19.548Z,3.40
2017-06-26T21:01:47.131Z,3.50
2017-06-26T21:04:14.670Z,2.97
2017-06-26T21:06:42.194Z,3.10
2017-06-26T21:09:10.525Z,2.70
2017-06-26T21:11:38.103Z,2.90
2017-06-26T21:14:05.647Z,2.80
2017-06-26T21:16:33.208Z,2.93
2017-06-26T21:19:00.785Z,2.60
2017-06-26T21:21:28.335Z,2.50
2017-06-26T21:23:55.927Z,2.67
2017-06-26T21:26:23.491Z,2.90
2017-06-26T21:28:51.062Z,2.83
2017-06-26T21:31:18.637Z,2.60
2017-06-26T21:33:46.182Z,2.40
2017-06-26T21:36:13.724Z,2.70
2017-06-26T21:38:41.327Z,2.50
2017-06-26T21:41:08.935Z,2.83
2017-06-26T21:43:36.485Z,2.63
2017-06-26T21:46:04.813Z,2.50
2017-06-26T21:48:32.387Z,2.60
2017-06-26T21:50:59.941Z,2.23
2017-06-26T21:53:27.549Z,2.40
2017-06-26T21:55:55.880Z,2.40
2017-06-26T21:58:23.438Z,2.40
2017-06-26T22:00:51.003Z,2.07
2017-06-26T22:03:18.578Z,2.00
2017-06-26T22:05:46.160Z,2.40
2017-06-26T22:08:13.725Z,2.30
2017-06-26T22:10:41.294Z,2.47
2017-06-26T22:13:08.879Z,2.33
2017-06-26T22:15:36.459Z,2.33
2017-06-26T22:18:04.033Z,2.30
2017-06-26T22:20:32.406Z,2.60
2017-06-26T22:23:00.720Z,3.00
2017-06-26T22:25:28.312Z,2.07
2017-06-26T22:27:55.872Z,2.10
2017-06-26T22:30:23.415Z,2.40
2017-06-26T22:32:50.968Z,2.60
2017-06-26T22:35:18.541Z,2.40
2017-06-26T22:37:46.091Z,2.10
2017-06-26T22:40:13.659Z,2.67
2017-06-26T22:42:41.227Z,3.20
2017-06-26T22:45:08.783Z,3.53
2017-06-26T22:47:36.380Z,3.53
2017-06-26T22:50:04.452Z,4.00
2017-06-26T22:52:31.991Z,3.80
2017-06-26T22:54:59.544Z,3.60
2017-06-26T22:57:27.899Z,3.20
2017-06-26T22:59:55.441Z,3.20
2017-06-26T23:02:23.751Z,3.40
2017-06-26T23:04:51.349Z,3.53
2017-06-26T23:07:18.923Z,3.37
2017-06-26T23:09:46.459Z,3.30
2017-06-26T23:12:14.807Z,3.00
2017-06-26T23:14:42.363Z,2.60
2017-06-26T23:17:09.958Z,2.47
2017-06-26T23:19:38.331Z,2.97
2017-06-26T23:22:05.954Z,3.20
2017-06-26T23:24:33.521Z,2.80
2017-06-26T23:27:01.105Z,3.20
2017-06-26T23:29:28.671Z,3.20
2017-06-26T23:31:56.213Z,3.20
2017-06-26T23:34:23.786Z,3.30
2017-06-26T23:36:51.349Z,2.90
2017-06-26T23:39:18.876Z,2.87
2017-06-26T23:41:46.445Z,3.07
2017-06-26T23:44:14.008Z,3.53
2017-06-26T23:46:42.328Z,3.40
2017-06-26T23:49:09.903Z,2.93
2017-06-26T23:51:37.454Z,3.00
2017-06-26T23:54:05.005Z,2.80
2017-06-26T23:56:32.605Z,3.23
2017-06-26T23:59:00.163Z,2.93
